Time;durP1;ratioP1;P1;durP2;ratioP2;P2;SDS_P1;SDS_P2;PMS_P1;PMS_P2;Temp;Humidity;BMP_temperature;BMP_pressure;BME280_temperature;BME280_humidity;BME280_pressure;Samples;Min_cycle;Max_cycle;Signal;HPM_P1;HPM_P2
2022/08/18 00:02:24;;;;;;;54.75;43.50;;;17.90;99.90;;;-144.05;80.67;125687.94;4918613;29;20147;-85
2022/08/18 00:04:53;;;;;;;49.10;42.33;;;17.80;99.90;;;-144.05;80.72;125687.94;4920654;29;20483;-83
2022/08/18 00:07:31;;;;;;;63.20;49.97;;;17.70;99.90;;;-144.05;81.65;125687.94;4920125;29;20585;-85
2022/08/18 00:10:00;;;;;;;61.80;49.13;;;17.70;99.90;;;-144.05;82.05;125687.94;4921070;29;20042;-85
2022/08/18 00:12:36;;;;;;;67.32;52.28;;;17.70;99.90;;;-144.05;82.10;125687.94;4921137;29;20063;-85
2022/08/18 00:15:08;;;;;;;66.35;52.10;;;17.70;99.90;;;-144.05;82.89;125687.94;4956293;29;20086;-84
2022/08/18 00:17:35;;;;;;;72.32;53.70;;;17.80;99.90;;;-144.05;82.87;125687.94;4940252;29;20027;-86
2022/08/18 00:20:10;;;;;;;61.58;46.05;;;17.80;99.90;;;-144.05;82.52;125687.94;4940098;29;20075;-84
2022/08/18 00:22:38;;;;;;;62.90;48.35;;;17.80;99.90;;;-144.05;82.79;125687.94;4940239;29;20110;-83
2022/08/18 00:25:10;;;;;;;68.03;52.92;;;17.80;99.90;;;-144.05;82.76;125687.94;4940753;29;20027;-86
2022/08/18 00:27:38;;;;;;;60.90;48.92;;;17.80;99.90;;;-144.05;82.56;125687.94;4940596;29;20551;-86
2022/08/18 00:30:12;;;;;;;66.70;51.90;;;17.80;99.90;;;-144.05;82.77;125687.94;4941264;29;20090;-87
2022/08/18 00:32:45;;;;;;;68.07;51.22;;;17.80;99.90;;;-144.05;82.91;125687.94;4941669;29;20293;-87
2022/08/18 00:35:30;;;;;;;57.15;44.60;;;17.80;99.90;;;-144.05;82.86;125687.94;4940811;29;20039;-87
2022/08/18 00:38:02;;;;;;;54.78;44.60;;;17.80;99.90;;;-144.05;82.61;125687.94;4957496;29;20066;-85
2022/08/18 00:40:44;;;;;;;60.78;47.17;;;17.80;99.90;;;-144.05;82.84;125687.94;4939182;29;20023;-84
2022/08/18 00:43:26;;;;;;;57.95;46.72;;;17.80;99.90;;;-144.05;82.46;125687.94;4937824;29;20432;-85
2022/08/18 00:45:52;;;;;;;56.05;46.30;;;17.70;99.90;;;-144.05;82.71;125687.94;4937965;29;20059;-86
2022/08/18 00:48:18;;;;;;;64.25;47.08;;;17.60;99.90;;;-144.05;82.73;125687.94;4938121;29;20042;-86
2022/08/18 00:50:50;;;;;;;68.45;51.15;;;17.50;99.90;;;-144.05;82.94;125687.94;4938339;28;20099;-85
2022/08/18 00:53:49;;;;;;;57.10;44.60;;;17.50;99.90;;;-144.05;83.02;125687.94;4938575;29;20517;-85
2022/08/18 00:56:47;;;;;;;61.85;45.38;;;17.40;99.90;;;-144.05;83.41;125687.94;4939622;29;20031;-85
2022/08/18 00:59:47;;;;;;;61.50;46.63;;;17.30;99.90;;;-144.05;83.54;125687.94;4954856;29;20045;-86
2022/08/18 01:02:41;;;;;;;56.72;42.83;;;17.30;99.90;;;-144.05;83.38;125687.94;4939639;29;20102;-86
2022/08/18 01:05:32;;;;;;;58.72;45.78;;;17.30;99.90;;;-144.05;83.60;125687.94;4940410;29;20497;-85
2022/08/18 01:07:59;;;;;;;62.33;47.03;;;17.20;99.90;;;-144.05;83.72;125687.94;4940425;29;20107;-87
2022/08/18 01:10:25;;;;;;;55.35;42.28;;;17.10;99.90;;;-144.05;83.69;125687.94;4940642;29;20034;-87
2022/08/18 01:12:56;;;;;;;54.28;42.80;;;17.10;99.90;;;-144.05;83.98;125687.94;4940810;29;20031;-86
2022/08/18 01:15:26;;;;;;;66.13;48.78;;;17.10;99.90;;;-144.05;84.18;125687.94;4945392;29;20452;-87
2022/08/18 01:24:13;;;;;;;58.67;43.88;;;17.00;99.90;;;-144.05;84.18;125687.94;4958081;29;20037;-85
2022/08/18 01:26:48;;;;;;;64.03;46.17;;;17.00;99.90;;;-144.05;84.51;125687.94;4941049;29;20027;-85
2022/08/18 01:29:17;;;;;;;57.17;43.78;;;16.90;99.90;;;-144.05;84.41;125687.94;4957060;29;20037;-85
2022/08/18 01:31:55;;;;;;;62.78;46.45;;;16.80;99.90;;;-144.05;84.56;125687.94;4941728;29;20035;-86
2022/08/18 01:34:26;;;;;;;58.53;43.78;;;16.80;99.90;;;-144.05;84.63;125687.94;4940967;29;20393;-85
2022/08/18 01:36:53;;;;;;;63.60;47.45;;;16.80;99.90;;;-144.05;84.77;125687.94;4940815;29;20031;-85
2022/08/18 01:39:21;;;;;;;60.50;45.10;;;16.70;99.90;;;-144.05;84.92;125687.94;4940769;29;20087;-83
2022/08/18 01:41:48;;;;;;;76.30;54.05;;;16.70;99.90;;;-144.05;85.37;125687.94;4940768;29;20459;-85
2022/08/18 01:44:14;;;;;;;70.63;50.53;;;16.70;99.90;;;-144.05;85.44;125687.94;4941054;29;20393;-85
2022/08/18 01:46:41;;;;;;;72.60;50.80;;;16.70;99.90;;;-144.05;85.72;125687.94;4941131;29;20034;-84
2022/08/18 01:49:09;;;;;;;73.80;53.38;;;16.70;99.90;;;-144.05;85.70;125687.94;4940455;29;20024;-85
2022/08/18 01:51:40;;;;;;;68.80;49.83;;;16.70;99.90;;;-144.05;85.64;125687.94;4940607;29;20059;-85
2022/08/18 01:54:10;;;;;;;80.18;56.35;;;16.70;99.90;;;-144.05;86.20;125687.94;4940758;29;20082;-84
2022/08/18 01:56:36;;;;;;;101.80;66.30;;;16.80;99.90;;;-144.05;86.97;125687.94;4940147;29;20086;-85
2022/08/18 01:59:02;;;;;;;92.07;61.15;;;16.90;99.90;;;-144.05;86.64;125687.94;4940886;29;20090;-85
2022/08/18 02:01:28;;;;;;;108.75;71.45;;;16.90;99.90;;;-144.05;87.45;125687.94;4940029;29;20023;-85
2022/08/18 02:04:01;;;;;;;120.28;75.35;;;17.00;99.90;;;-144.05;87.72;125687.94;4940103;29;20097;-85
2022/08/18 02:06:27;;;;;;;114.90;74.75;;;17.10;99.90;;;-144.05;87.68;125687.94;4940054;29;20454;-85
2022/08/18 02:08:53;;;;;;;106.60;66.13;;;17.20;99.90;;;-144.05;87.47;125687.94;4940413;29;20069;-85
2022/08/18 02:11:19;;;;;;;105.35;68.20;;;17.20;99.90;;;-144.05;87.55;125687.94;4940419;29;20027;-85
2022/08/18 02:13:44;;;;;;;97.45;63.17;;;17.20;99.90;;;-144.05;87.62;125687.94;4939919;29;20035;-86
2022/08/18 02:16:10;;;;;;;83.35;56.25;;;17.20;99.90;;;-144.05;87.35;125687.94;4940268;29;20445;-85
2022/08/18 02:18:37;;;;;;;97.50;63.35;;;17.20;99.90;;;-144.05;87.46;125687.94;4939903;29;20031;-85
2022/08/18 02:21:16;;;;;;;97.47;63.67;;;17.10;99.90;;;-144.05;87.58;125687.94;4940124;28;20062;-85
2022/08/18 02:23:45;;;;;;;93.63;62.97;;;17.10;99.90;;;-144.05;87.61;125687.94;4940664;28;20038;-85
2022/08/18 02:26:16;;;;;;;104.50;68.78;;;17.00;99.90;;;-144.05;87.90;125687.94;4940842;29;20162;-85
2022/08/18 02:28:43;;;;;;;113.18;74.15;;;17.10;99.90;;;-144.05;88.33;125687.94;4940066;29;20039;-85
2022/08/18 02:31:20;;;;;;;98.30;62.53;;;17.10;99.90;;;-144.05;87.97;125687.94;4939887;29;20035;-85
2022/08/18 02:33:47;;;;;;;93.50;61.22;;;17.10;99.90;;;-144.05;87.87;125687.94;4939856;29;20027;-84
2022/08/18 02:36:14;;;;;;;90.93;59.67;;;17.10;99.90;;;-144.05;87.87;125687.94;4939430;29;20031;-84
2022/08/18 02:38:42;;;;;;;83.53;56.08;;;17.10;99.90;;;-144.05;87.57;125687.94;4939727;29;20023;-83
2022/08/18 02:41:11;;;;;;;79.63;55.75;;;17.00;99.90;;;-144.05;87.56;125687.94;4939841;29;20031;-84
2022/08/18 02:43:40;;;;;;;81.93;53.90;;;17.00;99.90;;;-144.05;87.72;125687.94;4939757;29;20035;-86
2022/08/18 02:46:07;;;;;;;81.45;55.47;;;16.90;99.90;;;-144.05;87.48;125687.94;4939987;29;20035;-85
2022/08/18 02:48:34;;;;;;;78.88;54.40;;;16.90;99.90;;;-144.05;87.63;125687.94;4955795;29;20035;-85
2022/08/18 02:51:11;;;;;;;83.43;54.10;;;16.90;99.90;;;-144.05;87.55;125687.94;4939778;28;20034;-85
2022/08/18 02:53:45;;;;;;;88.13;60.03;;;16.90;99.90;;;-144.05;87.75;125687.94;4940055;29;20031;-85
2022/08/18 02:56:23;;;;;;;97.00;62.78;;;16.80;99.90;;;-144.05;87.90;125687.94;4940501;29;20523;-85
2022/08/18 02:58:58;;;;;;;101.53;64.60;;;16.80;99.90;;;-144.05;88.17;125687.94;4940290;29;20059;-86
2022/08/18 03:01:33;;;;;;;115.60;72.93;;;16.90;99.90;;;-144.05;89.14;125687.94;4940274;29;20034;-86
2022/08/18 03:04:01;;;;;;;111.78;70.47;;;16.90;99.90;;;-144.05;89.23;125687.94;4940895;29;20031;-85
2022/08/18 03:06:29;;;;;;;107.63;68.78;;;17.00;99.90;;;-144.05;89.13;125687.94;4941297;29;20145;-88
2022/08/18 03:08:55;;;;;;;113.50;71.90;;;17.10;99.90;;;-144.05;89.22;125687.94;4941457;29;20027;-86
2022/08/18 03:11:27;;;;;;;108.38;67.90;;;17.10;99.90;;;-144.05;88.99;125687.94;4941606;29;20027;-87
2022/08/18 03:13:55;;;;;;;112.45;67.18;;;17.20;99.90;;;-144.05;88.99;125687.94;4942338;29;20035;-86
2022/08/18 03:16:23;;;;;;;112.07;68.15;;;17.20;99.90;;;-144.05;88.67;125687.94;4959390;29;20107;-88
2022/08/18 03:18:52;;;;;;;129.80;69.15;;;17.30;99.90;;;-144.05;88.67;125687.94;4942882;29;20031;-87
2022/08/18 03:21:24;;;;;;;113.68;66.03;;;17.30;99.90;;;-144.05;88.55;125687.94;4943025;29;20397;-87
2022/08/18 03:23:55;;;;;;;147.05;76.45;;;17.40;99.90;;;-144.05;89.22;125687.94;4964969;29;20038;-87
2022/08/18 03:28:58;;;;;;;127.55;68.95;;;17.50;99.90;;;-144.05;88.71;125687.94;5408512;23;20047;-87
2022/08/18 03:31:30;;;;;;;136.57;72.50;;;17.50;99.90;;;-144.05;88.79;125687.94;4957013;29;20102;-85
2022/08/18 03:34:00;;;;;;;128.32;67.25;;;17.50;99.90;;;-144.05;88.56;125687.94;4940757;29;20082;-87
2022/08/18 03:36:32;;;;;;;140.82;77.72;;;17.50;99.90;;;-144.05;89.01;125687.94;4939639;29;20031;-86
2022/08/18 03:39:06;;;;;;;139.98;72.80;;;17.50;99.90;;;-144.05;88.93;125687.94;4940206;29;20024;-87
2022/08/18 03:41:34;;;;;;;144.52;73.10;;;17.60;99.90;;;-144.05;89.46;125687.94;4941062;29;20043;-87
2022/08/18 03:44:02;;;;;;;135.68;72.72;;;17.70;99.90;;;-144.05;89.37;125687.94;4957716;29;20445;-87
2022/08/18 03:46:29;;;;;;;136.85;75.18;;;17.70;99.90;;;-144.05;89.06;125687.94;4941202;29;20035;-86
2022/08/18 03:48:59;;;;;;;127.65;69.30;;;17.80;99.90;;;-144.05;89.01;125687.94;4960022;29;20035;-87
2022/08/18 03:51:31;;;;;;;124.15;66.60;;;17.80;99.90;;;-144.05;88.71;125687.94;4944289;29;20042;-85
2022/08/18 03:54:01;;;;;;;130.25;68.82;;;17.90;99.90;;;-144.05;88.47;125687.94;4939818;29;20039;-86
2022/08/18 03:56:37;;;;;;;132.18;70.97;;;17.90;99.90;;;-144.05;88.34;125687.94;4938597;29;20606;-85
2022/08/18 03:59:09;;;;;;;;;;;18.00;99.90;;;-144.05;88.09;125687.94;4939289;29;20039;-85
2022/08/18 04:01:40;;;;;;;133.63;69.55;;;18.00;99.90;;;-144.05;87.73;125687.94;4939012;29;19964;-86
2022/08/18 04:04:18;;;;;;;119.65;62.75;;;18.00;99.90;;;-144.05;87.69;125687.94;4957112;29;20038;-86
2022/08/18 04:06:59;;;;;;;126.50;69.32;;;18.00;99.90;;;-144.05;87.45;125687.94;4938932;29;20381;-86
2022/08/18 04:09:30;;;;;;;117.82;64.47;;;18.10;99.90;;;-144.05;87.30;125687.94;4939349;29;20059;-84
2022/08/18 04:12:11;;;;;;;124.85;68.40;;;18.00;99.90;;;-144.05;87.22;125687.94;4940008;29;20031;-86
2022/08/18 04:14:40;;;;;;;124.53;69.53;;;18.10;99.90;;;-144.05;86.92;125687.94;4957596;28;20026;-86
2022/08/18 04:17:08;;;;;;;122.72;69.55;;;18.10;99.90;;;-144.05;86.53;125687.94;4977872;28;20027;-87
2022/08/18 04:19:36;;;;;;;120.95;67.18;;;18.10;99.90;;;-144.05;86.40;125687.94;4960417;28;20026;-88
2022/08/18 04:22:04;;;;;;;123.40;65.75;;;18.10;99.90;;;-144.05;86.17;125687.94;4985914;23;20059;-85
2022/08/18 04:24:33;;;;;;;117.38;64.00;;;18.00;99.90;;;-144.05;86.19;125687.94;4923410;29;20031;-89
2022/08/18 04:27:03;;;;;;;118.82;66.28;;;18.00;99.90;;;-144.05;85.99;125687.94;4922646;29;20032;-87
2022/08/18 04:29:30;;;;;;;130.98;69.72;;;18.00;99.90;;;-144.05;85.86;125687.94;4937926;29;20032;-85
2022/08/18 04:32:03;;;;;;;125.93;65.95;;;18.00;99.90;;;-144.05;85.79;125687.94;4922682;29;20028;-86
2022/08/18 04:34:32;;;;;;;125.28;68.10;;;18.00;99.90;;;-144.05;85.46;125687.94;4940040;29;20024;-83
2022/08/18 04:36:59;;;;;;;130.32;70.40;;;18.10;99.90;;;-144.05;84.82;125687.94;4922603;29;20028;-88
2022/08/18 04:39:30;;;;;;;125.68;67.97;;;18.10;99.90;;;-144.05;84.47;125687.94;4939321;29;20027;-88
2022/08/18 04:42:07;;;;;;;125.43;68.32;;;18.10;99.90;;;-144.05;84.21;125687.94;4922062;29;20028;-87
2022/08/18 04:44:37;;;;;;;135.05;70.32;;;18.10;99.90;;;-144.05;84.11;125687.94;4939348;29;20059;-87
2022/08/18 04:47:09;;;;;;;127.20;68.32;;;18.00;99.90;;;-144.05;84.05;125687.94;4922261;29;20035;-86
2022/08/18 04:49:36;;;;;;;126.63;69.07;;;18.00;99.90;;;-144.05;84.29;125687.94;4943106;29;20028;-88
2022/08/18 04:54:50;;;;;;;126.05;69.72;;;18.10;99.90;;;-144.05;84.07;125687.94;4943269;29;20031;-85
2022/08/18 04:57:20;;;;;;;130.80;73.28;;;18.00;99.90;;;-144.05;84.36;125687.94;4926334;29;20035;-87
2022/08/18 04:59:51;;;;;;;134.48;71.68;;;18.00;99.90;;;-144.05;84.31;125687.94;4927661;29;20210;-84
2022/08/18 05:02:20;;;;;;;133.35;68.40;;;18.00;99.90;;;-144.05;84.26;125687.94;4926306;29;20035;-88
2022/08/18 05:04:46;;;;;;;135.45;69.65;;;18.00;99.90;;;-144.05;84.24;125687.94;4942443;29;20028;-88
2022/08/18 05:07:19;;;;;;;139.82;71.65;;;18.00;99.90;;;-144.05;83.96;125687.94;4925460;29;20035;-88
2022/08/18 05:09:45;;;;;;;138.95;72.65;;;18.00;99.90;;;-144.05;83.91;125687.94;4925088;29;20118;-85
2022/08/18 05:12:14;;;;;;;135.45;70.88;;;18.10;99.90;;;-144.05;83.89;125687.94;4944134;29;20038;-87
2022/08/18 05:14:43;;;;;;;129.50;68.85;;;18.10;99.90;;;-144.05;83.59;125687.94;4925553;29;20028;-87
2022/08/18 05:17:11;;;;;;;124.38;66.18;;;18.10;99.90;;;-144.05;83.37;125687.94;4943469;29;20036;-87
2022/08/18 05:19:37;;;;;;;132.43;70.10;;;18.10;99.90;;;-144.05;83.26;125687.94;4925616;29;20032;-88
2022/08/18 05:22:06;;;;;;;120.05;64.45;;;18.20;99.90;;;-144.05;83.05;125687.94;4925085;29;20035;-88
2022/08/18 05:24:34;;;;;;;134.43;68.90;;;18.20;99.90;;;-144.05;82.34;125687.94;4925302;29;20035;-88
2022/08/18 05:27:01;;;;;;;129.30;66.40;;;18.20;99.90;;;-144.05;82.29;125687.94;4925239;29;20038;-89
2022/08/18 05:29:35;;;;;;;126.43;63.38;;;18.20;99.90;;;-144.05;82.12;125687.94;4928711;29;20027;-86
2022/08/18 05:32:06;;;;;;;139.02;70.97;;;18.30;99.90;;;-144.05;81.72;125687.94;4925925;29;20128;-87
2022/08/18 05:34:34;;;;;;;130.90;67.63;;;18.20;99.90;;;-144.05;81.62;125687.94;4926002;29;20042;-89
2022/08/18 05:37:51;;;;;;;128.35;65.18;;;18.20;99.90;;;-144.05;81.89;125687.94;4925098;29;20028;-87
2022/08/18 05:40:27;;;;;;;114.53;60.25;;;18.30;99.90;;;-144.05;81.96;125687.94;4924845;29;20063;-87
2022/08/18 05:42:57;;;;;;;125.80;65.78;;;18.30;99.90;;;-144.05;81.88;125687.94;4925653;29;20478;-87
2022/08/18 05:45:26;;;;;;;136.25;68.72;;;18.30;99.90;;;-144.05;82.02;125687.94;4925805;29;20043;-85
2022/08/18 05:47:59;;;;;;;132.25;69.25;;;18.30;99.90;;;-144.05;81.91;125687.94;4925537;29;20023;-86
2022/08/18 05:50:29;;;;;;;147.77;74.38;;;18.30;99.90;;;-144.05;82.12;125687.94;4952227;29;20508;-87
2022/08/18 05:53:06;;;;;;;153.15;74.93;;;18.30;99.90;;;-144.05;82.62;125687.94;4931738;29;20048;-87
2022/08/18 05:58:50;;;;;;;154.40;74.57;;;18.20;99.90;;;-144.05;83.11;125687.94;4942498;29;20191;-85
2022/08/18 06:01:40;;;;;;;139.68;68.00;;;18.20;99.90;;;-144.05;83.16;125687.94;4925034;29;20038;-86
2022/08/18 06:04:33;;;;;;;152.25;70.53;;;18.20;99.90;;;-144.05;83.01;125687.94;4925183;29;20036;-86
2022/08/18 06:07:09;;;;;;;151.77;71.25;;;18.20;99.90;;;-144.05;83.06;125687.94;4925260;29;20031;-88
2022/08/18 06:09:53;;;;;;;144.02;68.45;;;18.20;99.90;;;-144.05;83.01;125687.94;4924883;29;20039;-87
2022/08/18 06:12:56;;;;;;;149.05;73.95;;;18.20;99.90;;;-144.05;82.48;125687.94;4925455;29;20132;-88
2022/08/18 06:15:34;;;;;;;129.45;62.13;;;18.20;99.90;;;-144.05;82.44;125687.94;4935798;29;20035;-87
2022/08/18 06:18:43;;;;;;;118.20;58.13;;;18.20;99.90;;;-144.05;82.23;125687.94;4925456;29;20031;-88
2022/08/18 06:21:44;;;;;;;129.10;62.33;;;18.30;99.90;;;-144.05;81.95;125687.94;4925944;29;20031;-87
2022/08/18 06:24:41;;;;;;;120.97;60.22;;;18.40;99.90;;;-144.05;81.73;125687.94;4910913;29;20047;-87
2022/08/18 06:28:12;;;;;;;135.00;65.45;;;18.50;99.90;;;-144.05;81.42;125687.94;4942625;29;20457;-85
2022/08/18 06:30:51;;;;;;;148.00;67.45;;;18.50;99.90;;;-144.05;81.06;125687.94;4926066;29;20526;-87
2022/08/18 06:33:46;;;;;;;132.60;63.75;;;18.50;99.90;;;-144.05;81.21;125687.94;4924718;29;20032;-87
2022/08/18 06:36:51;;;;;;;123.90;59.05;;;18.60;99.90;;;-144.05;80.54;125687.94;4925193;29;20036;-85
2022/08/18 06:39:51;;;;;;;129.05;62.72;;;18.60;99.90;;;-144.05;80.39;125687.94;4942205;29;20035;-87
2022/08/18 06:42:29;;;;;;;133.90;61.78;;;18.60;99.90;;;-144.05;80.47;125687.94;4943818;29;20095;-87
2022/08/18 06:45:05;;;;;;;119.28;61.75;;;18.60;99.90;;;-144.05;80.38;125687.94;4926467;29;20035;-87
2022/08/18 06:47:58;;;;;;;118.82;59.83;;;18.60;99.90;;;-144.05;80.04;125687.94;4926076;29;20031;-86
2022/08/18 06:50:54;;;;;;;123.70;60.28;;;18.60;99.90;;;-144.05;79.88;125687.94;4943471;29;20028;-84
2022/08/18 06:53:21;;;;;;;118.18;58.53;;;18.70;99.90;;;-144.05;79.62;125687.94;4926350;29;20508;-85
2022/08/18 06:55:50;;;;;;;116.55;57.92;;;18.70;99.90;;;-144.05;79.69;125687.94;4925704;29;20055;-87
2022/08/18 06:58:17;;;;;;;117.43;60.83;;;18.70;99.90;;;-144.05;79.67;125687.94;4925566;29;20115;-87
2022/08/18 07:01:06;;;;;;;123.00;62.65;;;18.80;99.90;;;-144.05;80.32;125687.94;4926053;29;20019;-86
2022/08/18 07:03:50;;;;;;;129.65;62.13;;;18.80;99.90;;;-144.05;80.32;125687.94;4926563;29;20399;-86
2022/08/18 07:06:30;;;;;;;128.60;62.35;;;18.80;99.90;;;-144.05;79.77;125687.94;4926156;29;20036;-85
2022/08/18 07:09:21;;;;;;;127.70;62.60;;;18.90;99.90;;;-144.05;80.29;125687.94;4926930;29;20031;-87
2022/08/18 07:12:07;;;;;;;124.03;60.28;;;18.80;99.90;;;-144.05;79.93;125687.94;4943440;29;20030;-87
2022/08/18 07:14:55;;;;;;;124.00;60.42;;;18.90;99.90;;;-144.05;79.72;125687.94;4925070;29;20036;-89
2022/08/18 07:17:36;;;;;;;129.73;62.03;;;19.00;99.90;;;-144.05;79.70;125687.94;4911174;29;20032;-87
2022/08/18 07:20:23;;;;;;;126.82;60.58;;;19.00;99.90;;;-144.05;79.24;125687.94;4930325;29;20091;-88
2022/08/18 07:23:04;;;;;;;132.27;61.65;;;19.10;99.90;;;-144.05;79.77;125687.94;4925995;29;20064;-86
2022/08/18 07:25:45;;;;;;;125.22;60.20;;;19.20;99.90;;;-144.05;78.70;125687.94;4909514;29;20090;-85
2022/08/18 07:28:43;;;;;;;119.03;58.47;;;19.30;99.90;;;-144.05;77.57;125687.94;4911899;29;20032;-88
2022/08/18 07:31:34;;;;;;;116.05;57.00;;;19.40;99.90;;;-144.05;76.57;125687.94;4915454;29;20032;-85
2022/08/18 07:34:19;;;;;;;110.70;54.70;;;19.60;99.90;;;-144.05;74.82;125687.94;4907829;29;20032;-85
2022/08/18 07:37:00;;;;;;;116.13;57.17;;;19.80;99.90;;;-144.05;74.54;125687.94;4925383;29;20038;-87
2022/08/18 07:40:13;;;;;;;111.97;57.78;;;19.70;99.90;;;-144.05;74.80;125687.94;4912783;29;20092;-88
2022/08/18 07:43:04;;;;;;;98.55;50.78;;;19.80;99.90;;;-144.05;73.91;125687.94;4916775;29;20052;-83
2022/08/18 07:45:45;;;;;;;96.30;48.92;;;19.90;99.90;;;-144.05;73.59;125687.94;4923572;29;20036;-84
2022/08/18 07:48:24;;;;;;;108.18;55.33;;;20.10;99.90;;;-144.05;72.99;125687.94;4923359;29;20068;-82
2022/08/18 07:51:23;;;;;;;110.97;56.03;;;20.10;99.90;;;-144.05;73.10;125687.94;4921519;29;20055;-83
2022/08/18 07:54:24;;;;;;;100.85;51.58;;;20.00;99.90;;;-144.05;73.03;125687.94;4921308;29;20087;-84
2022/08/18 07:57:28;;;;;;;92.40;47.58;;;20.00;99.90;;;-144.05;73.44;125687.94;4915381;29;20043;-86
2022/08/18 08:00:23;;;;;;;102.35;52.03;;;19.90;99.90;;;-144.05;73.66;125687.94;4907386;29;20063;-85
2022/08/18 08:04:18;;;;;;;93.82;49.08;;;19.80;99.90;;;-144.05;73.96;125687.94;4924885;29;20028;-87
2022/08/18 08:07:19;;;;;;;104.63;51.67;;;19.80;99.90;;;-144.05;73.97;125687.94;4869423;29;20139;-85
2022/08/18 08:11:02;;;;;;;104.53;54.20;;;19.80;99.90;;;-144.05;73.77;125687.94;4909381;29;20083;-85
2022/08/18 08:13:57;;;;;;;114.53;54.38;;;19.80;99.90;;;-144.05;73.65;125687.94;4868389;29;20511;-88
2022/08/18 08:16:58;;;;;;;109.63;55.80;;;19.80;99.90;;;-144.05;73.71;125687.94;4884847;29;20041;-85
2022/08/18 08:20:25;;;;;;;103.70;53.03;;;19.90;99.90;;;-144.05;73.66;125687.94;4904648;29;20032;-85
2022/08/18 08:23:16;;;;;;;96.28;47.75;;;20.00;99.90;;;-144.05;73.15;125687.94;4906547;29;20032;-85
2022/08/18 08:26:33;;;;;;;89.00;46.78;;;20.10;99.90;;;-144.05;72.75;125687.94;4924429;29;20028;-87
2022/08/18 08:29:41;;;;;;;94.57;49.97;;;20.20;99.90;;;-144.05;72.25;125687.94;4940767;29;20064;-88
2022/08/18 08:32:58;;;;;;;105.70;52.38;;;20.20;99.90;;;-144.05;72.24;125687.94;4910129;29;20051;-86
2022/08/18 08:36:06;;;;;;;102.78;52.95;;;20.20;99.90;;;-144.05;72.68;125687.94;4904901;29;20024;-86
2022/08/18 08:38:57;;;;;;;90.68;48.17;;;20.20;99.90;;;-144.05;72.49;125687.94;4911483;29;20040;-87
2022/08/18 08:41:39;;;;;;;98.28;50.95;;;20.20;99.90;;;-144.05;72.14;125687.94;4909569;29;20096;-87
2022/08/18 08:44:20;;;;;;;93.93;51.20;;;20.20;99.90;;;-144.05;71.84;125687.94;4943861;29;20064;-86
2022/08/18 08:47:43;;;;;;;90.10;49.40;;;20.30;99.90;;;-144.05;71.52;125687.94;4908249;29;20039;-87
2022/08/18 08:50:27;;;;;;;83.80;44.80;;;20.50;99.90;;;-144.05;70.04;125687.94;4895266;29;20469;-88
2022/08/18 08:53:07;;;;;;;78.80;44.75;;;20.70;99.90;;;-144.05;69.31;125687.94;4909178;29;20051;-86
2022/08/18 08:55:47;;;;;;;81.97;46.38;;;21.10;99.90;;;-144.05;67.34;125687.94;4925786;29;20024;-84
2022/08/18 08:58:20;;;;;;;86.45;47.28;;;21.30;99.90;;;-144.05;67.20;125687.94;4909102;29;20561;-87
2022/08/18 09:00:50;;;;;;;67.32;42.20;;;21.40;99.90;;;-144.05;66.17;125687.94;4908112;29;20062;-86
2022/08/18 09:03:45;;;;;;;77.25;42.28;;;21.60;99.90;;;-144.05;65.53;125687.94;4925706;29;20078;-87
2022/08/18 09:06:57;;;;;;;76.63;46.50;;;21.70;99.90;;;-144.05;65.15;125687.94;4908897;29;20028;-85
2022/08/18 09:10:10;;;;;;;69.78;42.60;;;21.70;99.90;;;-144.05;64.70;125687.94;4922378;29;20195;-87
2022/08/18 09:13:52;;;;;;;75.60;47.55;;;21.80;99.90;;;-144.05;64.44;125687.94;4939702;29;20095;-87
2022/08/18 09:16:56;;;;;;;80.95;45.58;;;21.80;99.90;;;-144.05;64.40;125687.94;4939220;29;20130;-87
2022/08/18 09:20:16;;;;;;;76.38;44.88;;;21.90;99.90;;;-144.05;63.80;125687.94;4938821;29;20043;-86
2022/08/18 09:23:00;;;;;;;64.40;39.35;;;21.90;99.90;;;-144.05;63.48;125687.94;4923864;29;20040;-87
2022/08/18 09:25:38;;;;;;;72.30;44.08;;;21.90;99.90;;;-144.05;64.58;125687.94;4906495;29;20024;-87
2022/08/18 09:28:28;;;;;;;67.85;42.30;;;21.80;99.90;;;-144.05;64.28;125687.94;4908083;29;20031;-86
2022/08/18 09:31:06;;;;;;;52.22;35.30;;;21.90;99.90;;;-144.05;63.52;125687.94;4914853;29;20123;-87
2022/08/18 09:33:47;;;;;;;70.22;45.00;;;22.10;99.90;;;-144.05;62.17;125687.94;4914443;29;20036;-85
2022/08/18 09:36:48;;;;;;;61.55;40.35;;;22.30;99.90;;;-144.05;61.47;125687.94;4914693;29;20099;-86
2022/08/18 09:43:05;;;;;;;67.75;45.17;;;22.70;99.90;;;-144.05;59.91;125687.94;4923842;29;20039;-87
2022/08/18 09:45:31;;;;;;;63.42;41.80;;;22.60;99.90;;;-144.05;60.74;125687.94;4905888;29;20020;-84
2022/08/18 09:48:32;;;;;;;57.90;39.15;;;22.60;99.90;;;-144.05;60.24;125687.94;4923365;29;20409;-86
2022/08/18 09:51:31;;;;;;;70.65;44.80;;;22.60;99.90;;;-144.05;61.69;125687.94;4905773;29;20096;-86
2022/08/18 09:54:17;;;;;;;57.88;38.92;;;22.40;99.90;;;-144.05;61.17;125687.94;4922570;29;20482;-85
2022/08/18 09:56:49;;;;;;;52.88;36.67;;;22.50;99.90;;;-144.05;60.89;125687.94;4922939;29;20525;-84
2022/08/18 09:59:36;;;;;;;50.63;35.70;;;22.50;99.90;;;-144.05;60.56;125687.94;4906688;29;20119;-88
2022/08/18 10:02:34;;;;;;;59.28;40.20;;;22.60;99.90;;;-144.05;60.27;125687.94;4906032;29;20036;-86
2022/08/18 10:05:18;;;;;;;61.65;41.05;;;22.50;99.90;;;-144.05;59.99;125687.94;4885843;29;20043;-86
2022/08/18 10:08:16;;;;;;;62.63;40.80;;;22.50;99.90;;;-144.05;60.15;125687.94;4925533;29;20036;-86
2022/08/18 10:11:17;;;;;;;53.97;38.03;;;22.50;99.90;;;-144.05;61.00;125687.94;4944105;29;20009;-84
2022/08/18 10:14:11;;;;;;;61.50;40.35;;;22.40;99.90;;;-144.05;60.73;125687.94;4905599;29;20051;-86
2022/08/18 10:17:10;;;;;;;67.25;42.15;;;22.40;99.90;;;-144.05;61.54;125687.94;4938440;29;20032;-86
2022/08/18 10:20:15;;;;;;;67.07;41.95;;;22.30;99.90;;;-144.05;61.70;125687.94;4937687;29;20032;-86
2022/08/18 13:19:43;;;;;;;;;;;26.90;99.90;;;-144.05;43.72;125687.94;4940155;29;20059;-89
2022/08/18 13:22:11;;;;;;;28.85;24.63;;;27.50;99.90;;;-144.05;42.82;125687.94;4923608;29;19954;-88
2022/08/18 13:24:37;;;;;;;30.20;24.20;;;27.60;99.90;;;-144.05;43.52;125687.94;4924054;29;20035;-88
2022/08/18 13:27:07;;;;;;;26.88;22.20;;;27.40;99.90;;;-144.05;43.56;125687.94;4961245;29;20032;-86
2022/08/18 13:29:33;;;;;;;20.35;17.35;;;27.10;99.90;;;-144.05;44.73;125687.94;4946712;29;20050;-90
2022/08/18 13:32:11;;;;;;;21.33;17.00;;;26.90;99.90;;;-144.05;44.46;125687.94;4924785;29;20036;-89
2022/08/18 13:34:37;;;;;;;18.15;16.25;;;27.10;99.90;;;-144.05;44.66;125687.94;4942418;29;20042;-89
2022/08/18 13:37:06;;;;;;;21.38;19.08;;;27.10;99.90;;;-144.05;44.37;125687.94;4941188;29;20123;-89
2022/08/18 13:39:32;;;;;;;20.70;18.50;;;27.20;99.90;;;-144.05;43.55;125687.94;4940393;29;20032;-89
2022/08/18 13:41:59;;;;;;;21.90;19.55;;;27.20;99.90;;;-144.05;43.92;125687.94;4940385;29;20034;-90
2022/08/18 13:44:25;;;;;;;22.50;19.02;;;27.00;99.90;;;-144.05;43.97;125687.94;4924837;29;20040;-89
2022/08/18 13:46:54;;;;;;;18.30;15.60;;;27.10;99.90;;;-144.05;43.62;125687.94;4924746;29;20035;-88
2022/08/18 13:49:23;;;;;;;26.92;21.48;;;27.30;99.90;;;-144.05;42.59;125687.94;4940517;29;20055;-88
2022/08/18 13:51:58;;;;;;;24.00;19.88;;;27.40;99.90;;;-144.05;43.25;125687.94;4924847;29;20156;-88